Time;durP1;ratioP1;P1;durP2;ratioP2;P2;SDS_P1;SDS_P2;PMS_P1;PMS_P2;Temp;Humidity;BMP_temperature;BMP_pressure;BME280_temperature;BME280_humidity;BME280_pressure;Samples;Min_cycle;Max_cycle;Signal;HPM_P1;HPM_P2
2022/10/01 00:00:47;;;;;;;69.60;51.70;;;20.20;68.90;;;;;;5028323;27;86480;-47
2022/10/01 00:03:13;;;;;;;70.60;51.20;;;20.20;69.10;;;;;;5022435;27;85932;-48
2022/10/01 00:05:38;;;;;;;71.38;51.78;;;20.20;68.80;;;;;;5020936;27;86217;-47
2022/10/01 00:08:04;;;;;;;70.88;51.40;;;20.20;69.50;;;;;;5027514;27;85879;-50
2022/10/01 00:10:30;;;;;;;68.97;51.53;;;20.20;68.60;;;;;;5034201;27;87577;-54
2022/10/01 00:12:57;;;;;;;70.45;50.90;;;20.20;69.00;;;;;;5027884;27;85135;-50
2022/10/01 00:15:25;;;;;;;70.68;51.50;;;20.20;68.60;;;;;;5021488;27;89209;-51
2022/10/01 00:17:51;;;;;;;69.45;51.13;;;20.20;68.70;;;;;;5030056;27;87140;-50
2022/10/01 00:20:18;;;;;;;71.60;51.35;;;20.20;68.50;;;;;;5017607;27;91807;-53
2022/10/01 00:22:43;;;;;;;70.07;51.15;;;20.20;68.30;;;;;;5029614;27;87446;-51
2022/10/01 00:25:09;;;;;;;70.00;51.45;;;20.20;68.10;;;;;;5022664;27;86820;-51
2022/10/01 00:27:35;;;;;;;70.03;51.65;;;20.20;68.20;;;;;;5026743;27;87288;-50
2022/10/01 00:30:03;;;;;;;69.25;51.25;;;20.20;68.10;;;;;;5020550;27;86015;-51
2022/10/01 00:32:31;;;;;;;69.85;51.05;;;20.20;68.00;;;;;;5028452;27;90182;-52
2022/10/01 00:34:58;;;;;;;69.20;50.92;;;20.20;68.00;;;;;;5030201;27;86854;-53
2022/10/01 00:37:24;;;;;;;68.97;51.00;;;20.10;68.00;;;;;;5032052;27;89229;-52
2022/10/01 00:39:49;;;;;;;70.63;50.97;;;20.10;68.00;;;;;;5029286;27;85765;-52
2022/10/01 00:42:24;;;;;;;68.75;51.05;;;20.10;67.90;;;;;;5032264;27;85112;-52
2022/10/01 00:44:50;;;;;;;70.22;51.05;;;20.10;67.70;;;;;;5023994;27;85653;-51
2022/10/01 00:47:38;;;;;;;68.70;50.85;;;20.10;67.60;;;;;;5027219;27;85499;-52
2022/10/01 00:50:28;;;;;;;69.03;50.80;;;20.10;67.50;;;;;;5030437;27;87184;-53
2022/10/01 00:52:58;;;;;;;69.38;50.67;;;20.20;67.50;;;;;;5032056;27;85153;-54
2022/10/01 00:55:24;;;;;;;71.25;50.95;;;20.10;67.40;;;;;;5026405;27;85737;-50
2022/10/01 00:57:50;;;;;;;69.35;50.75;;;20.10;67.50;;;;;;5041518;27;85695;-49
2022/10/01 01:00:17;;;;;;;69.40;51.13;;;20.10;67.20;;;;;;5026870;27;85755;-51
2022/10/01 01:02:42;;;;;;;68.78;50.60;;;20.20;67.30;;;;;;5025013;27;85701;-49
2022/10/01 01:05:12;;;;;;;70.32;50.90;;;20.10;67.00;;;;;;5025607;27;86668;-48
2022/10/01 01:07:40;;;;;;;70.30;50.85;;;20.10;67.10;;;;;;5025571;27;88954;-53
2022/10/01 01:10:07;;;;;;;70.30;50.80;;;20.10;67.00;;;;;;5023862;27;85682;-54
2022/10/01 01:12:43;;;;;;;69.78;50.90;;;20.10;67.00;;;;;;5027068;27;87398;-50
2022/10/01 01:15:25;;;;;;;68.25;50.50;;;20.10;67.10;;;;;;5022072;27;91196;-50
2022/10/01 01:18:12;;;;;;;68.32;50.42;;;20.10;66.90;;;;;;5024579;27;89097;-52
2022/10/01 01:20:51;;;;;;;68.22;50.72;;;20.10;66.80;;;;;;5028273;27;90951;-53
2022/10/01 01:23:17;;;;;;;68.25;50.55;;;20.10;66.80;;;;;;5025536;27;85778;-52
2022/10/01 01:25:54;;;;;;;68.88;50.65;;;20.10;66.90;;;;;;5017461;27;89728;-51
2022/10/01 01:28:25;;;;;;;68.28;50.33;;;20.10;67.70;;;;;;5030543;27;85811;-50
2022/10/01 01:30:55;;;;;;;68.15;50.25;;;20.10;66.50;;;;;;5021072;27;86582;-52
2022/10/01 01:33:23;;;;;;;67.90;50.43;;;20.10;66.50;;;;;;5026547;27;86236;-48
2022/10/01 01:35:51;;;;;;;69.80;50.60;;;20.10;66.70;;;;;;5026861;27;90804;-50
2022/10/01 01:38:23;;;;;;;69.57;50.83;;;20.10;66.60;;;;;;5029875;27;86157;-51
2022/10/01 01:40:54;;;;;;;68.50;50.55;;;20.10;66.50;;;;;;5023232;27;86048;-48
2022/10/01 01:43:23;;;;;;;;;;;20.10;66.40;;;;;;5022737;27;85996;-53
2022/10/01 01:45:53;;;;;;;67.55;50.05;;;20.10;66.10;;;;;;5026002;27;84632;-49
2022/10/01 01:48:23;;;;;;;67.57;49.90;;;20.10;66.20;;;;;;5023045;27;85588;-53
2022/10/01 01:51:18;;;;;;;68.85;50.33;;;20.10;66.20;;;;;;5020098;27;86690;-48
2022/10/01 01:53:44;;;;;;;67.90;50.15;;;20.10;66.40;;;;;;5023535;27;86907;-50
2022/10/01 01:56:10;;;;;;;67.60;50.15;;;20.10;66.20;;;;;;5019459;27;87000;-54
2022/10/01 01:58:37;;;;;;;68.80;50.30;;;20.10;66.20;;;;;;5021929;27;88378;-52
2022/10/01 02:01:03;;;;;;;68.85;50.28;;;20.10;66.00;;;;;;5020896;27;85615;-50
2022/10/01 02:03:33;;;;;;;68.32;50.13;;;20.10;66.00;;;;;;5023899;27;85761;-53
2022/10/01 02:06:36;;;;;;;68.47;50.10;;;20.10;66.10;;;;;;5017672;27;86723;-51
2022/10/01 02:09:26;;;;;;;68.95;50.45;;;20.10;66.10;;;;;;4978211;28;88171;-51
2022/10/01 02:12:11;;;;;;;67.75;50.22;;;20.10;65.90;;;;;;5017763;27;85372;-49
2022/10/01 02:15:12;;;;;;;67.93;50.20;;;20.10;66.00;;;;;;5021983;27;85706;-48
2022/10/01 02:17:49;;;;;;;67.80;50.30;;;20.10;66.00;;;;;;5018132;27;85629;-51
2022/10/01 02:20:24;;;;;;;68.45;50.15;;;20.10;66.00;;;;;;5018134;27;89597;-48
2022/10/01 02:23:02;;;;;;;67.65;49.72;;;20.10;65.90;;;;;;5021886;27;87852;-49
2022/10/01 02:25:35;;;;;;;68.65;50.20;;;20.00;66.00;;;;;;5023796;27;86088;-52
2022/10/01 02:28:08;;;;;;;67.85;50.25;;;20.10;65.90;;;;;;5024706;27;85956;-51
2022/10/01 02:30:36;;;;;;;68.57;50.25;;;20.10;65.60;;;;;;5030605;27;85506;-50
2022/10/01 02:33:05;;;;;;;67.78;49.75;;;20.10;65.80;;;;;;5020041;27;92283;-51
2022/10/01 02:35:33;;;;;;;67.85;50.25;;;20.10;65.40;;;;;;5029120;27;85704;-49
2022/10/01 02:38:03;;;;;;;68.43;50.03;;;20.10;65.50;;;;;;5040909;27;84982;-47
2022/10/01 02:40:31;;;;;;;67.93;50.03;;;20.10;65.50;;;;;;5022889;27;86686;-49
2022/10/01 02:43:31;;;;;;;67.40;49.88;;;20.10;65.60;;;;;;5025629;27;87291;-52
2022/10/01 02:46:02;;;;;;;68.72;49.92;;;20.10;65.50;;;;;;5027923;27;85116;-50
2022/10/01 02:48:28;;;;;;;;;;;20.10;65.50;;;;;;5024317;27;85462;-50
2022/10/01 02:51:05;;;;;;;66.93;49.65;;;20.10;65.30;;;;;;5023393;27;84302;-52
2022/10/01 02:53:33;;;;;;;67.55;50.03;;;20.10;65.40;;;;;;5018228;27;87623;-49
2022/10/01 02:56:01;;;;;;;67.93;50.03;;;20.10;65.50;;;;;;5024671;27;86456;-50
2022/10/01 02:58:27;;;;;;;67.85;50.05;;;20.10;65.30;;;;;;5022383;27;87570;-50
2022/10/01 03:00:53;;;;;;;67.32;49.90;;;20.10;65.30;;;;;;5022789;27;92125;-53
2022/10/01 03:03:18;;;;;;;68.00;49.95;;;20.10;65.20;;;;;;5024207;27;86666;-51
2022/10/01 03:05:44;;;;;;;68.68;49.85;;;20.00;65.40;;;;;;5030982;27;85540;-50
2022/10/01 03:08:09;;;;;;;67.35;49.80;;;20.10;65.30;;;;;;5020906;27;88259;-50
2022/10/01 03:10:35;;;;;;;68.18;49.65;;;20.10;65.20;;;;;;5017332;27;85675;-50
2022/10/01 03:13:01;;;;;;;67.32;49.75;;;20.10;65.00;;;;;;5023334;27;85343;-52
2022/10/01 03:15:27;;;;;;;67.70;49.65;;;20.10;65.10;;;;;;5017606;27;85923;-49
2022/10/01 03:17:53;;;;;;;68.55;50.22;;;20.10;65.20;;;;;;5024059;27;91119;-51
2022/10/01 03:20:19;;;;;;;67.45;49.97;;;20.00;65.00;;;;;;5020391;27;86442;-50
2022/10/01 03:22:45;;;;;;;68.28;50.08;;;20.10;65.20;;;;;;5019974;27;86142;-54
2022/10/01 03:25:12;;;;;;;67.60;49.75;;;20.10;65.10;;;;;;5023311;27;89805;-54
2022/10/01 03:27:38;;;;;;;67.05;49.70;;;20.00;65.10;;;;;;5021208;27;85946;-50
2022/10/01 03:30:04;;;;;;;67.72;49.60;;;20.10;64.90;;;;;;5019666;27;86351;-52
2022/10/01 03:32:30;;;;;;;67.68;50.17;;;20.10;65.00;;;;;;5023073;27;87227;-51
2022/10/01 03:34:56;;;;;;;67.57;49.72;;;20.10;65.00;;;;;;5018022;27;85180;-51
2022/10/01 03:37:22;;;;;;;67.40;49.75;;;20.00;64.90;;;;;;5024869;27;92212;-51
2022/10/01 03:39:47;;;;;;;67.78;49.67;;;20.00;65.00;;;;;;5018301;27;86220;-50
2022/10/01 03:42:15;;;;;;;68.00;49.95;;;20.00;65.10;;;;;;5018890;27;86628;-48
2022/10/01 03:44:41;;;;;;;67.05;49.67;;;20.00;65.10;;;;;;5026815;27;85950;-48
2022/10/01 03:47:07;;;;;;;67.35;49.92;;;20.00;65.00;;;;;;5024605;27;87221;-54
2022/10/01 03:49:33;;;;;;;67.18;49.75;;;20.00;65.10;;;;;;4998776;27;86212;-47
2022/10/01 03:51:59;;;;;;;67.13;49.53;;;20.00;65.00;;;;;;5020752;27;85897;-49
2022/10/01 03:54:25;;;;;;;67.18;49.75;;;20.00;64.80;;;;;;5013969;27;87110;-50
2022/10/01 03:56:51;;;;;;;68.72;49.85;;;20.00;64.90;;;;;;5025796;27;86782;-52
2022/10/01 03:59:18;;;;;;;67.75;49.85;;;20.00;64.60;;;;;;5017230;27;88781;-52
2022/10/01 04:01:44;;;;;;;67.53;49.70;;;20.10;64.70;;;;;;5025318;27;86093;-52
2022/10/01 04:04:10;;;;;;;67.40;49.88;;;20.00;64.80;;;;;;5027843;27;88589;-53
2022/10/01 04:06:35;;;;;;;67.63;49.67;;;20.10;64.70;;;;;;5021004;27;90528;-52
2022/10/01 04:09:01;;;;;;;67.32;49.80;;;20.10;64.50;;;;;;5027243;27;85754;-52
2022/10/01 04:11:27;;;;;;;67.25;49.65;;;20.20;64.30;;;;;;5024503;27;85723;-53
2022/10/01 04:13:52;;;;;;;66.90;49.40;;;20.10;64.50;;;;;;5018984;27;85467;-52
2022/10/01 04:16:18;;;;;;;67.63;49.67;;;20.10;64.70;;;;;;5025057;27;87155;-47
2022/10/01 04:18:44;;;;;;;68.13;50.10;;;20.10;64.60;;;;;;5030207;27;85597;-51
2022/10/01 04:21:11;;;;;;;67.03;49.72;;;20.10;64.60;;;;;;5019510;27;86224;-52
2022/10/01 04:23:37;;;;;;;67.13;49.58;;;20.10;64.50;;;;;;5017235;27;87714;-52
2022/10/01 04:26:03;;;;;;;67.68;49.60;;;20.00;64.70;;;;;;5018433;27;86415;-47
2022/10/01 04:28:30;;;;;;;67.00;49.55;;;20.00;64.60;;;;;;5025479;27;86005;-52
2022/10/01 04:33:40;;;;;;;68.28;49.67;;;20.10;64.50;;;;;;5020796;27;85845;-51
2022/10/01 04:36:06;;;;;;;66.95;49.55;;;20.10;64.30;;;;;;5022289;27;86460;-54
2022/10/01 04:38:32;;;;;;;67.75;49.75;;;20.10;65.00;;;;;;5023908;27;85819;-53
2022/10/01 04:40:58;;;;;;;67.20;49.67;;;20.10;64.40;;;;;;5027298;27;85493;-52
2022/10/01 04:43:24;;;;;;;67.60;49.75;;;20.10;64.40;;;;;;5023358;27;85617;-51
2022/10/01 04:45:49;;;;;;;68.13;49.58;;;20.10;64.30;;;;;;5027737;27;86483;-52
2022/10/01 04:48:15;;;;;;;67.45;49.88;;;20.10;64.40;;;;;;5025483;27;89046;-52
2022/10/01 04:50:40;;;;;;;67.25;49.67;;;20.10;64.30;;;;;;5022665;27;86641;-50
2022/10/01 04:53:06;;;;;;;67.25;49.80;;;20.00;64.40;;;;;;5019937;27;87067;-53
2022/10/01 04:55:32;;;;;;;67.45;49.65;;;20.00;64.60;;;;;;5018323;27;86196;-50
2022/10/01 04:57:57;;;;;;;68.35;49.65;;;20.00;64.40;;;;;;5024019;27;90118;-50
2022/10/01 05:00:25;;;;;;;67.88;49.55;;;20.10;64.40;;;;;;5021898;27;91406;-52
2022/10/01 05:02:52;;;;;;;67.63;49.65;;;20.10;64.00;;;;;;5028402;27;85926;-49
2022/10/01 05:05:19;;;;;;;68.03;49.55;;;20.20;64.00;;;;;;5027671;27;85960;-53
2022/10/01 05:07:46;;;;;;;66.72;49.30;;;20.10;64.10;;;;;;5020255;27;86170;-52
2022/10/01 05:10:14;;;;;;;67.50;49.75;;;20.10;63.90;;;;;;5037225;27;87458;-49
2022/10/01 05:12:40;;;;;;;66.90;49.65;;;20.10;64.10;;;;;;5021259;27;87735;-51
2022/10/01 05:15:07;;;;;;;67.45;49.60;;;20.10;64.10;;;;;;5031646;27;85475;-52
2022/10/01 05:17:33;;;;;;;67.53;49.75;;;20.10;64.00;;;;;;5027712;27;88605;-49
2022/10/01 05:20:00;;;;;;;67.68;49.58;;;20.10;63.90;;;;;;5035305;27;90372;-52
2022/10/01 05:22:26;;;;;;;66.93;49.55;;;20.10;63.80;;;;;;5026349;27;85464;-52
2022/10/01 05:24:52;;;;;;;68.95;49.70;;;20.10;64.00;;;;;;5017213;27;88059;-53
2022/10/01 05:27:18;;;;;;;66.95;49.65;;;20.10;64.10;;;;;;5020357;27;87791;-50
2022/10/01 05:29:45;;;;;;;67.00;49.50;;;20.10;64.10;;;;;;5036445;27;85309;-51
2022/10/01 05:32:11;;;;;;;67.28;49.78;;;20.10;64.10;;;;;;5026883;27;85450;-52
2022/10/01 05:34:37;;;;;;;66.97;49.53;;;20.10;64.00;;;;;;5024775;27;89674;-50
2022/10/01 05:37:04;;;;;;;67.57;49.80;;;20.10;64.20;;;;;;5018326;27;88329;-51
2022/10/01 05:39:31;;;;;;;67.55;49.72;;;20.10;64.00;;;;;;5024176;27;86004;-52
2022/10/01 05:41:58;;;;;;;68.68;49.75;;;20.10;64.00;;;;;;5028718;27;89232;-51
2022/10/01 05:44:24;;;;;;;67.07;49.45;;;20.10;64.00;;;;;;5022220;27;89772;-51
2022/10/01 05:46:51;;;;;;;67.07;49.63;;;20.10;64.00;;;;;;5020898;27;85484;-52
2022/10/01 05:49:16;;;;;;;67.22;49.45;;;20.10;63.80;;;;;;5017398;27;88205;-53
2022/10/01 05:51:45;;;;;;;68.18;49.78;;;20.00;64.10;;;;;;5021778;27;85989;-51
2022/10/01 05:54:12;;;;;;;67.82;49.75;;;20.00;64.20;;;;;;5033829;27;85417;-56
2022/10/01 05:56:38;;;;;;;67.10;49.47;;;20.00;64.00;;;;;;5022851;27;86637;-50
2022/10/01 05:59:04;;;;;;;68.95;49.60;;;20.00;64.00;;;;;;5011519;27;85577;-52
2022/10/01 06:01:31;;;;;;;67.97;49.72;;;20.00;63.90;;;;;;5019313;27;85249;-53
2022/10/01 06:03:57;;;;;;;67.00;49.50;;;20.10;64.00;;;;;;5031975;27;86105;-53
2022/10/01 06:06:24;;;;;;;68.82;49.83;;;20.00;64.10;;;;;;5027468;27;85035;-52
2022/10/01 06:08:50;;;;;;;67.43;49.65;;;20.00;64.20;;;;;;5027589;27;85124;-52
2022/10/01 06:11:15;;;;;;;68.07;49.55;;;20.00;64.10;;;;;;5039100;27;85348;-52
2022/10/01 06:13:44;;;;;;;67.80;49.78;;;20.00;64.20;;;;;;5018432;27;86873;-51
2022/10/01 06:16:10;;;;;;;67.68;49.55;;;20.00;64.20;;;;;;5021483;27;85070;-51
2022/10/01 06:18:36;;;;;;;67.80;49.85;;;20.10;64.00;;;;;;5028571;27;86892;-49
2022/10/01 06:21:01;;;;;;;67.72;49.53;;;20.00;64.00;;;;;;5030195;27;85583;-51
2022/10/01 06:23:27;;;;;;;69.32;49.78;;;20.00;64.20;;;;;;5026762;27;85700;-51
2022/10/01 06:25:53;;;;;;;68.30;50.05;;;20.00;64.30;;;;;;5030069;27;85717;-52
2022/10/01 06:28:19;;;;;;;68.30;49.67;;;20.00;64.20;;;;;;5024673;27;87031;-53
2022/10/01 06:30:45;;;;;;;68.82;49.72;;;20.00;64.10;;;;;;5026220;27;85258;-51
2022/10/01 06:33:14;;;;;;;67.28;49.63;;;20.00;64.20;;;;;;5020809;27;86811;-52
2022/10/01 06:35:42;;;;;;;68.53;49.80;;;20.10;64.00;;;;;;5017913;27;90792;-53
2022/10/01 06:38:08;;;;;;;69.00;49.83;;;20.00;63.80;;;;;;5012138;27;85909;-50
2022/10/01 06:40:35;;;;;;;68.72;49.72;;;20.10;63.80;;;;;;5018598;27;88533;-51
2022/10/01 06:43:01;;;;;;;67.68;49.83;;;20.10;63.80;;;;;;5023001;27;87037;-49
2022/10/01 06:45:29;;;;;;;68.15;49.80;;;20.00;64.10;;;;;;5023784;27;86385;-53
2022/10/01 06:48:02;;;;;;;68.32;49.90;;;20.00;64.30;;;;;;5018965;27;91407;-51
2022/10/01 06:50:29;;;;;;;68.30;49.70;;;20.00;64.20;;;;;;5019142;27;89062;-53
2022/10/01 06:52:55;;;;;;;68.25;49.88;;;20.00;64.20;;;;;;5024904;27;86442;-50
2022/10/01 06:55:27;;;;;;;69.32;49.75;;;20.00;64.10;;;;;;5025852;27;86446;-52
2022/10/01 06:57:58;;;;;;;68.88;50.05;;;20.00;64.20;;;;;;5023603;27;85882;-53
2022/10/01 07:00:24;;;;;;;67.83;50.00;;;20.00;64.20;;;;;;5022582;27;87620;-51
2022/10/01 07:02:51;;;;;;;68.97;50.05;;;19.90;64.30;;;;;;5028278;27;88467;-53
2022/10/01 07:05:17;;;;;;;69.07;50.40;;;20.00;64.20;;;;;;5025670;27;86108;-50
2022/10/01 07:07:43;;;;;;;68.63;49.92;;;20.00;64.20;;;;;;5025806;27;85945;-51
2022/10/01 07:10:10;;;;;;;68.45;49.63;;;20.00;64.10;;;;;;5022143;27;85696;-51
2022/10/01 07:12:37;;;;;;;71.00;49.85;;;20.00;64.30;;;;;;5023410;27;88806;-51
2022/10/01 07:15:04;;;;;;;68.80;49.83;;;20.00;64.30;;;;;;5022632;27;91156;-49
2022/10/01 07:17:30;;;;;;;67.53;49.45;;;19.90;64.40;;;;;;5027920;27;85596;-53
2022/10/01 07:19:56;;;;;;;69.63;49.92;;;19.90;64.60;;;;;;5023597;27;85617;-53
2022/10/01 07:22:23;;;;;;;67.75;49.50;;;19.90;64.40;;;;;;5016896;27;87573;-51
2022/10/01 07:24:50;;;;;;;68.68;49.95;;;20.00;64.30;;;;;;5020583;27;85927;-51
2022/10/01 07:27:16;;;;;;;71.57;49.90;;;20.00;64.20;;;;;;5028627;27;85958;-50
2022/10/01 07:29:41;;;;;;;69.05;50.08;;;20.00;64.30;;;;;;5024265;27;86014;-52
2022/10/01 07:32:09;;;;;;;69.03;49.90;;;20.00;64.50;;;;;;5016652;27;86672;-51
2022/10/01 07:34:37;;;;;;;68.45;49.78;;;20.00;64.50;;;;;;5022164;27;87060;-54
2022/10/01 07:37:03;;;;;;;70.00;50.13;;;19.90;64.60;;;;;;5026465;27;85473;-51
2022/10/01 07:39:29;;;;;;;69.63;50.15;;;20.00;64.40;;;;;;5017759;27;88036;-52
2022/10/01 07:41:55;;;;;;;69.18;49.85;;;19.90;64.60;;;;;;5023757;27;87816;-52
2022/10/01 07:44:21;;;;;;;68.90;49.88;;;19.90;64.60;;;;;;5027312;27;86183;-51
2022/10/01 07:46:47;;;;;;;70.20;50.25;;;19.90;64.60;;;;;;5021023;27;92206;-50
2022/10/01 07:49:13;;;;;;;70.35;50.25;;;19.90;64.50;;;;;;5020315;27;89272;-50
2022/10/01 07:51:42;;;;;;;69.00;50.17;;;19.90;64.60;;;;;;5021631;27;86284;-50
2022/10/01 07:54:08;;;;;;;69.25;50.25;;;20.00;64.30;;;;;;5026033;27;85896;-50
2022/10/01 07:56:34;;;;;;;71.47;49.97;;;20.00;64.30;;;;;;5017155;27;88642;-49
2022/10/01 07:58:59;;;;;;;68.53;49.85;;;20.00;64.30;;;;;;5025442;27;88650;-50
2022/10/01 08:01:25;;;;;;;70.82;50.58;;;20.00;64.30;;;;;;5026176;27;85532;-54
2022/10/01 08:03:51;;;;;;;69.00;49.92;;;20.00;64.30;;;;;;5021396;27;86860;-52
2022/10/01 08:06:19;;;;;;;70.75;50.30;;;20.00;64.20;;;;;;5025386;27;85720;-52
2022/10/01 08:08:45;;;;;;;71.68;50.28;;;20.00;64.40;;;;;;5020865;27;86863;-49
2022/10/01 08:11:13;;;;;;;72.68;51.05;;;20.00;64.50;;;;;;5021180;27;85452;-51
2022/10/01 08:13:40;;;;;;;72.00;51.03;;;19.90;64.40;;;;;;5020960;27;87382;-51
2022/10/01 08:16:08;;;;;;;68.20;49.80;;;19.90;64.40;;;;;;5020027;27;85666;-48
2022/10/01 08:18:34;;;;;;;71.55;50.85;;;19.90;64.60;;;;;;5026135;27;85856;-50
2022/10/01 08:21:00;;;;;;;71.80;50.72;;;20.00;64.30;;;;;;5019507;27;85611;-53
2022/10/01 08:23:28;;;;;;;73.18;50.97;;;20.00;64.30;;;;;;5015012;27;85874;-51
2022/10/01 08:25:59;;;;;;;68.65;49.92;;;20.00;64.40;;;;;;5021431;27;85512;-50
2022/10/01 08:28:25;;;;;;;;;;;20.00;65.20;;;;;;5022973;27;86827;-52
2022/10/01 08:30:50;;;;;;;70.97;50.30;;;20.00;64.40;;;;;;5018290;27;85237;-48
2022/10/01 08:33:16;;;;;;;69.82;50.35;;;20.10;64.50;;;;;;5013897;27;85438;-53
2022/10/01 08:35:42;;;;;;;72.90;51.13;;;20.10;65.10;;;;;;5016848;27;87546;-51
2022/10/01 08:38:09;;;;;;;71.00;50.78;;;20.10;64.90;;;;;;5019205;27;85192;-51
2022/10/01 08:40:49;;;;;;;72.75;51.60;;;20.10;65.30;;;;;;5023786;27;85990;-49
2022/10/01 08:43:33;;;;;;;73.20;51.08;;;20.10;65.30;;;;;;5017810;27;86649;-50
2022/10/01 08:46:13;;;;;;;76.68;50.92;;;20.20;65.60;;;;;;5032526;27;85814;-54
2022/10/01 08:48:46;;;;;;;73.63;51.25;;;20.10;65.50;;;;;;5021804;27;85499;-49
2022/10/01 08:51:38;;;;;;;72.97;51.28;;;20.20;65.60;;;;;;5017460;27;86315;-53
2022/10/01 08:54:18;;;;;;;75.32;51.47;;;20.20;65.70;;;;;;5014992;27;85937;-53
2022/10/01 08:56:46;;;;;;;73.35;51.38;;;20.30;65.80;;;;;;5019020;27;86034;-52
2022/10/01 08:59:48;;;;;;;75.90;51.95;;;20.30;66.00;;;;;;5022269;27;86837;-51
2022/10/01 09:02:21;;;;;;;75.03;51.58;;;20.30;65.80;;;;;;5015903;27;87451;-52
2022/10/01 09:04:51;;;;;;;76.53;51.72;;;20.40;66.20;;;;;;5029407;27;85700;-49
2022/10/01 09:07:26;;;;;;;74.72;51.60;;;20.40;66.00;;;;;;5030093;27;86265;-49
2022/10/01 09:10:12;;;;;;;76.57;51.95;;;20.40;66.10;;;;;;5039507;27;85437;-51
2022/10/01 09:12:47;;;;;;;78.05;51.85;;;20.40;65.90;;;;;;5022285;27;85587;-50
2022/10/01 09:15:15;;;;;;;73.65;52.05;;;20.30;66.20;;;;;;5029478;27;85296;-50
2022/10/01 09:17:47;;;;;;;77.15;52.03;;;20.40;66.30;;;;;;5029484;27;85778;-53
2022/10/01 09:20:24;;;;;;;;;;;20.40;66.20;;;;;;5027245;27;90229;-51
2022/10/01 09:23:26;;;;;;;82.05;51.92;;;20.50;66.10;;;;;;5017757;27;84832;-49
2022/10/01 09:25:52;;;;;;;76.85;51.50;;;20.50;66.10;;;;;;5017068;27;85597;-53
2022/10/01 09:28:22;;;;;;;76.53;51.80;;;20.50;66.00;;;;;;5023627;27;85782;-52
2022/10/01 09:30:53;;;;;;;74.28;52.03;;;20.50;66.00;;;;;;5020088;27;85538;-51
2022/10/01 09:33:21;;;;;;;75.65;51.67;;;20.50;66.00;;;;;;5019183;27;88815;-52
2022/10/01 09:36:20;;;;;;;76.32;51.92;;;20.50;66.00;;;;;;5011530;27;85840;-50
2022/10/01 09:39:21;;;;;;;75.97;52.03;;;20.50;65.80;;;;;;5009027;27;86573;-48
2022/10/01 09:41:47;;;;;;;74.83;51.83;;;20.60;65.80;;;;;;4988487;27;85700;-50
2022/10/01 09:44:25;;;;;;;73.40;51.45;;;20.50;66.00;;;;;;5023588;27;85692;-48
2022/10/01 09:46:51;;;;;;;75.57;52.33;;;20.50;65.80;;;;;;5025379;27;88512;-46
2022/10/01 09:49:30;;;;;;;77.13;52.15;;;20.50;65.70;;;;;;5011684;27;90577;-49
2022/10/01 09:52:06;;;;;;;77.22;52.30;;;20.60;65.70;;;;;;5026059;27;85674;-50
2022/10/01 09:54:41;;;;;;;78.22;51.90;;;20.60;65.60;;;;;;5022495;27;88917;-49
2022/10/01 09:57:12;;;;;;;77.28;51.85;;;20.70;65.60;;;;;;5022811;27;87971;-50
2022/10/01 10:00:01;;;;;;;81.43;52.38;;;20.70;65.70;;;;;;5023284;27;86372;-53
2022/10/01 10:02:48;;;;;;;78.85;51.83;;;20.70;66.30;;;;;;5002871;27;86060;-51
2022/10/01 10:05:16;;;;;;;78.15;51.80;;;20.70;66.40;;;;;;5028323;27;85168;-46
2022/10/01 10:08:10;;;;;;;75.13;51.40;;;20.70;66.20;;;;;;5037434;27;85862;-52
2022/10/01 10:10:38;;;;;;;81.53;52.63;;;20.70;66.00;;;;;;5027822;27;86593;-47
2022/10/01 10:13:09;;;;;;;76.00;51.75;;;20.70;65.90;;;;;;5025742;27;85372;-50
2022/10/01 10:15:36;;;;;;;;;;;20.70;65.80;;;;;;5031323;27;87022;-49
2022/10/01 10:18:16;;;;;;;75.60;51.58;;;20.70;65.50;;;;;;5033145;27;85299;-51
2022/10/01 10:20:44;;;;;;;78.53;51.50;;;20.70;65.60;;;;;;5044226;27;85583;-53
2022/10/01 10:23:25;;;;;;;79.65;51.85;;;20.70;65.50;;;;;;5026868;27;88076;-51
2022/10/01 10:26:03;;;;;;;76.47;51.50;;;20.70;65.40;;;;;;5030539;27;90691;-49
2022/10/01 10:28:41;;;;;;;75.93;51.78;;;20.70;65.30;;;;;;5028181;27;86392;-50
2022/10/01 10:31:20;;;;;;;76.47;51.80;;;20.70;65.30;;;;;;5025616;27;86915;-51
2022/10/01 10:34:14;;;;;;;79.25;51.85;;;20.70;65.10;;;;;;5031847;27;85530;-52
2022/10/01 10:36:41;;;;;;;75.88;52.10;;;20.70;65.10;;;;;;5034286;27;85573;-50
2022/10/01 10:39:36;;;;;;;76.55;51.75;;;20.80;65.10;;;;;;5037094;27;85904;-48
2022/10/01 10:42:03;;;;;;;77.97;51.92;;;20.80;65.00;;;;;;5032545;27;87453;-51
2022/10/01 10:44:38;;;;;;;76.50;52.08;;;20.80;65.00;;;;;;5042144;27;85693;-46
2022/10/01 10:47:10;;;;;;;76.55;51.78;;;20.80;65.00;;;;;;5031892;27;86496;-49
2022/10/01 10:49:57;;;;;;;75.20;51.60;;;20.80;64.90;;;;;;5029035;27;85938;-51
2022/10/01 10:52:28;;;;;;;75.15;51.67;;;20.80;64.80;;;;;;5035798;27;86402;-49
2022/10/01 10:54:55;;;;;;;;;;;20.80;64.80;;;;;;5042152;27;85554;-50
2022/10/01 10:57:33;;;;;;;74.72;51.53;;;20.90;64.80;;;;;;5029999;27;88388;-51
2022/10/01 11:00:04;;;;;;;73.28;51.42;;;20.90;64.80;;;;;;5031065;27;85101;-51
2022/10/01 11:02:32;;;;;;;79.22;51.95;;;20.90;64.80;;;;;;5034097;27;85375;-47
2022/10/01 11:05:30;;;;;;;77.78;51.40;;;20.90;64.80;;;;;;5033609;27;85705;-51
2022/10/01 11:07:59;;;;;;;76.75;51.90;;;20.90;64.80;;;;;;5031890;27;85131;-47
2022/10/01 11:10:48;;;;;;;75.40;51.85;;;20.90;64.70;;;;;;5035909;27;87521;-52
2022/10/01 11:13:23;;;;;;;78.15;51.45;;;20.90;64.80;;;;;;5038206;27;85795;-49
2022/10/01 11:16:17;;;;;;;74.60;51.38;;;20.90;64.50;;;;;;5036343;27;86888;-50
2022/10/01 11:19:18;;;;;;;75.75;51.45;;;20.90;64.30;;;;;;5035688;27;85635;-48
2022/10/01 11:22:08;;;;;;;77.78;51.63;;;21.00;64.30;;;;;;5031613;27;85953;-47
2022/10/01 11:24:37;;;;;;;75.70;51.47;;;20.90;64.20;;;;;;5033519;27;87076;-52
2022/10/01 11:27:42;;;;;;;78.38;51.88;;;20.90;64.30;;;;;;5046243;27;86369;-48
2022/10/01 11:30:26;;;;;;;75.93;51.90;;;21.00;64.30;;;;;;5010560;27;85404;-54
2022/10/01 11:33:12;;;;;;;76.00;51.78;;;20.90;64.20;;;;;;5014563;27;86896;-49
2022/10/01 11:35:54;;;;;;;75.32;51.45;;;21.00;64.30;;;;;;5028625;27;85938;-50
2022/10/01 11:38:25;;;;;;;73.15;51.28;;;21.00;64.20;;;;;;5034079;27;88053;-50
2022/10/01 11:41:13;;;;;;;74.45;51.75;;;21.00;64.10;;;;;;5023452;27;85342;-53
2022/10/01 11:43:52;;;;;;;74.28;51.40;;;21.00;64.40;;;;;;5023003;27;86746;-49
2022/10/01 11:46:25;;;;;;;76.50;51.47;;;21.00;64.80;;;;;;5015619;27;86700;-47
2022/10/01 11:48:56;;;;;;;74.78;51.60;;;21.00;64.70;;;;;;5022742;27;85487;-51
2022/10/01 11:51:41;;;;;;;78.13;52.05;;;21.00;64.50;;;;;;5020083;27;88143;-51
2022/10/01 11:54:13;;;;;;;74.45;51.33;;;21.00;64.30;;;;;;5031755;27;85217;-50
2022/10/01 11:59:48;;;;;;;74.60;51.53;;;21.10;63.90;;;;;;5026001;27;85747;-55
2022/10/01 12:02:53;;;;;;;74.20;51.90;;;21.00;64.10;;;;;;5016413;27;89646;-51
2022/10/01 12:05:30;;;;;;;75.05;51.58;;;21.00;64.40;;;;;;4983485;27;86252;-53
2022/10/01 12:08:01;;;;;;;75.28;51.25;;;21.10;64.30;;;;;;5030721;27;88330;-52
2022/10/01 12:10:45;;;;;;;76.70;51.40;;;21.10;64.30;;;;;;5015306;27;89657;-52
2022/10/01 12:13:41;;;;;;;73.38;51.30;;;21.10;64.50;;;;;;5019546;27;85813;-53
2022/10/01 12:16:29;;;;;;;75.35;51.25;;;21.10;64.60;;;;;;5024270;27;85811;-53
2022/10/01 12:19:11;;;;;;;74.65;51.05;;;21.20;64.60;;;;;;5023519;27;85640;-51
2022/10/01 12:21:41;;;;;;;74.78;51.33;;;21.20;64.60;;;;;;5013741;27;85112;-52
2022/10/01 12:24:20;;;;;;;76.40;51.47;;;21.20;64.70;;;;;;5018790;27;86385;-51
2022/10/01 12:27:24;;;;;;;76.70;51.63;;;21.20;64.60;;;;;;5021859;27;86222;-51
2022/10/01 12:30:21;;;;;;;77.18;51.40;;;21.20;64.70;;;;;;4989677;27;86059;-52
2022/10/01 12:33:18;;;;;;;76.60;51.72;;;21.20;64.60;;;;;;5020788;27;85771;-50
2022/10/01 12:35:47;;;;;;;74.75;51.28;;;21.20;64.60;;;;;;5026107;27;85299;-51
2022/10/01 12:38:18;;;;;;;74.40;51.75;;;21.20;64.40;;;;;;5011971;27;87379;-54
2022/10/01 12:41:02;;;;;;;76.88;51.58;;;21.20;64.70;;;;;;5019043;27;90334;-54
2022/10/01 12:43:34;;;;;;;76.53;51.35;;;21.20;64.60;;;;;;5018687;27;86520;-54
2022/10/01 12:46:06;;;;;;;73.55;51.05;;;21.20;64.10;;;;;;5023537;27;85459;-56
2022/10/01 12:48:52;;;;;;;74.78;51.20;;;21.30;63.90;;;;;;5019378;27;90054;-53
2022/10/01 12:51:39;;;;;;;74.28;51.35;;;21.30;63.70;;;;;;5018504;27;85683;-54
2022/10/01 12:54:42;;;;;;;75.70;51.63;;;21.20;63.40;;;;;;5022282;27;86818;-55
2022/10/01 12:57:10;;;;;;;75.15;51.67;;;21.30;63.20;;;;;;5016091;27;90544;-53